createdAt,value
2018-03-24T00:00:30.523Z,5.80
2018-03-24T00:02:58.892Z,5.70
2018-03-24T00:05:27.416Z,5.70
2018-03-24T00:07:55.037Z,5.70
2018-03-24T00:10:22.717Z,5.70
2018-03-24T00:12:50.411Z,5.70
2018-03-24T00:15:18.066Z,5.70
2018-03-24T00:17:46.268Z,5.70
2018-03-24T00:20:13.920Z,5.60
2018-03-24T00:22:41.553Z,5.50
2018-03-24T00:25:09.153Z,5.50
2018-03-24T00:27:37.620Z,5.50
2018-03-24T00:30:05.250Z,5.50
2018-03-24T00:32:33.660Z,5.40
2018-03-24T00:35:02.161Z,5.40
2018-03-24T00:37:29.769Z,5.30
2018-03-24T00:39:57.380Z,5.30
2018-03-24T00:42:25.090Z,5.20
2018-03-24T00:44:53.528Z,5.20
2018-03-24T00:47:21.266Z,5.20
2018-03-24T00:49:49.117Z,5.20
2018-03-24T00:52:16.821Z,5.20
2018-03-24T00:54:44.489Z,5.10
2018-03-24T00:57:12.185Z,5.10
2018-03-24T00:59:40.553Z,4.90
2018-03-24T01:02:08.210Z,5.00
2018-03-24T01:04:35.798Z,4.90
2018-03-24T01:07:03.411Z,4.90
2018-03-24T01:09:31.028Z,4.90
2018-03-24T01:11:58.669Z,4.80
2018-03-24T01:14:27.060Z,4.70
2018-03-24T01:16:54.705Z,4.70
2018-03-24T01:19:23.125Z,4.50
2018-03-24T01:21:50.844Z,4.50
2018-03-24T01:24:18.417Z,4.50
2018-03-24T01:26:46.278Z,4.50
2018-03-24T01:29:15.543Z,4.30
2018-03-24T01:31:43.385Z,4.30
2018-03-24T01:34:11.034Z,4.30
2018-03-24T01:36:38.649Z,4.30
2018-03-24T01:39:06.338Z,4.30
2018-03-24T01:41:34.745Z,4.30
2018-03-24T01:44:02.492Z,4.30
2018-03-24T01:46:30.127Z,4.20
2018-03-24T01:48:58.475Z,4.20
2018-03-24T01:51:26.167Z,4.20
2018-03-24T01:53:53.803Z,4.20
2018-03-24T01:56:21.384Z,4.20
2018-03-24T01:58:48.965Z,4.10
2018-03-24T02:01:17.818Z,4.10
2018-03-24T02:03:46.478Z,4.10
2018-03-24T02:06:14.207Z,4.10
2018-03-24T02:08:42.609Z,4.10
2018-03-24T02:11:10.205Z,4.10
2018-03-24T02:13:38.610Z,4.10
2018-03-24T02:16:07.641Z,4.00
2018-03-24T02:18:36.105Z,4.00
2018-03-24T02:21:04.676Z,3.90
2018-03-24T02:23:32.273Z,4.00
2018-03-24T02:25:59.941Z,4.00
2018-03-24T02:28:27.612Z,4.00
2018-03-24T02:30:55.291Z,4.00
2018-03-24T02:33:22.887Z,4.00
2018-03-24T02:35:51.389Z,3.90
2018-03-24T02:38:18.996Z,3.90
2018-03-24T02:40:46.608Z,3.90
2018-03-24T02:43:14.214Z,3.90
2018-03-24T02:45:41.885Z,3.90
2018-03-24T02:48:09.556Z,3.70
2018-03-24T02:50:37.191Z,3.60
2018-03-24T02:53:04.842Z,3.50
2018-03-24T02:55:32.462Z,3.40
2018-03-24T02:58:00.181Z,3.30
2018-03-24T03:00:27.939Z,3.30
2018-03-24T03:02:55.624Z,3.30
2018-03-24T03:05:23.248Z,3.20
2018-03-24T03:07:50.875Z,3.20
2018-03-24T03:10:18.498Z,3.20
2018-03-24T03:12:46.164Z,3.20
2018-03-24T03:15:13.860Z,3.10
2018-03-24T03:17:41.576Z,3.20
2018-03-24T03:20:09.262Z,3.20
2018-03-24T03:22:36.893Z,3.10
2018-03-24T03:25:04.504Z,3.10
2018-03-24T03:27:32.123Z,3.10
2018-03-24T03:30:00.737Z,3.10
2018-03-24T03:32:29.132Z,3.10
2018-03-24T03:34:58.193Z,3.10
2018-03-24T03:37:26.606Z,3.10
2018-03-24T03:39:55.038Z,3.20
2018-03-24T03:42:22.690Z,3.20
2018-03-24T03:44:50.325Z,3.20
2018-03-24T03:47:18.808Z,3.30
2018-03-24T03:49:47.171Z,3.20
2018-03-24T03:52:15.842Z,3.20
2018-03-24T03:54:43.425Z,3.20
2018-03-24T03:57:11.840Z,3.20
2018-03-24T03:59:39.506Z,3.20
2018-03-24T04:02:07.166Z,3.10
2018-03-24T04:04:35.689Z,3.20
2018-03-24T04:07:03.440Z,3.10
2018-03-24T04:09:31.025Z,3.10
2018-03-24T04:11:58.634Z,3.10
2018-03-24T04:14:26.317Z,3.10
2018-03-24T04:16:53.947Z,3.10
2018-03-24T04:19:21.575Z,3.10
2018-03-24T04:21:49.248Z,3.10
2018-03-24T04:24:17.690Z,2.90
2018-03-24T04:26:45.575Z,2.90
2018-03-24T04:29:13.160Z,2.80
2018-03-24T04:31:40.843Z,2.90
2018-03-24T04:34:08.498Z,2.90
2018-03-24T04:36:36.136Z,2.90
2018-03-24T04:39:03.814Z,2.90
2018-03-24T04:41:31.465Z,2.90
2018-03-24T04:43:59.056Z,2.80
2018-03-24T04:46:27.240Z,2.70
2018-03-24T04:48:54.942Z,2.60
2018-03-24T04:51:23.321Z,2.50
2018-03-24T04:53:50.934Z,2.40
2018-03-24T04:56:18.560Z,2.40
2018-03-24T04:58:46.929Z,2.30
2018-03-24T05:01:15.498Z,2.30
2018-03-24T05:03:44.172Z,2.30
2018-03-24T05:06:12.280Z,2.30
2018-03-24T05:08:40.780Z,2.40
2018-03-24T05:11:08.418Z,2.40
2018-03-24T05:13:36.093Z,2.50
2018-03-24T05:16:03.838Z,2.60
2018-03-24T05:18:32.056Z,2.60
2018-03-24T05:20:59.690Z,2.60
2018-03-24T05:23:28.073Z,2.60
2018-03-24T05:25:57.139Z,2.70
2018-03-24T05:28:24.792Z,2.70
2018-03-24T05:30:52.420Z,2.70
2018-03-24T05:33:20.488Z,2.80
2018-03-24T05:35:48.339Z,2.80
2018-03-24T05:38:15.973Z,2.80
2018-03-24T05:40:43.708Z,2.80
2018-03-24T05:43:11.321Z,2.90
2018-03-24T05:45:39.806Z,2.90
2018-03-24T05:48:07.493Z,2.90
2018-03-24T05:50:35.151Z,2.90
2018-03-24T05:53:02.879Z,2.90
2018-03-24T05:55:31.284Z,3.10
2018-03-24T05:57:58.895Z,3.10
2018-03-24T06:00:27.500Z,3.20
2018-03-24T06:02:55.723Z,3.40
2018-03-24T06:05:23.399Z,3.60
2018-03-24T06:07:51.048Z,3.60
2018-03-24T06:10:19.315Z,3.80
2018-03-24T06:12:46.933Z,3.80
2018-03-24T06:15:14.541Z,3.80
2018-03-24T06:17:42.221Z,3.80
2018-03-24T06:20:09.892Z,3.90
2018-03-24T06:22:37.968Z,3.90
2018-03-24T06:25:05.599Z,4.00
2018-03-24T06:27:33.211Z,3.90
2018-03-24T06:30:00.886Z,3.90
2018-03-24T06:32:29.301Z,4.00
2018-03-24T06:34:57.740Z,4.00
2018-03-24T06:37:26.168Z,4.10
2018-03-24T06:39:53.748Z,4.10
2018-03-24T06:42:21.332Z,4.20
2018-03-24T06:44:49.038Z,4.30
2018-03-24T06:47:18.634Z,4.50
2018-03-24T06:49:46.315Z,4.50
2018-03-24T06:52:14.104Z,4.60
2018-03-24T06:54:42.516Z,4.60
2018-03-24T06:57:10.203Z,4.60
2018-03-24T06:59:38.595Z,4.50
2018-03-24T07:02:06.225Z,4.50
2018-03-24T07:04:34.090Z,4.50
2018-03-24T07:07:02.571Z,4.50
2018-03-24T07:09:30.147Z,4.50
2018-03-24T07:11:58.581Z,4.50
2018-03-24T07:14:26.209Z,4.40
2018-03-24T07:16:53.860Z,4.50
2018-03-24T07:19:23.140Z,4.60
2018-03-24T07:21:50.734Z,4.60
2018-03-24T07:24:18.426Z,4.80
2018-03-24T07:26:46.502Z,4.80
2018-03-24T07:29:14.138Z,4.90
2018-03-24T07:31:41.798Z,4.90
2018-03-24T07:34:10.331Z,5.10
2018-03-24T07:36:38.941Z,5.20
2018-03-24T07:39:07.396Z,5.50
2018-03-24T07:41:34.987Z,5.50
2018-03-24T07:44:02.679Z,5.60
2018-03-24T07:46:30.301Z,5.70
2018-03-24T07:48:59.290Z,5.80
2018-03-24T07:51:27.721Z,5.80
2018-03-24T07:53:55.378Z,5.80
2018-03-24T07:56:23.027Z,5.90
2018-03-24T07:58:50.606Z,5.90
2018-03-24T08:01:18.278Z,6.10
2018-03-24T08:03:45.896Z,6.20
2018-03-24T08:06:13.506Z,6.20
2018-03-24T08:08:41.117Z,6.40
2018-03-24T08:11:09.504Z,6.60
2018-03-24T08:13:37.900Z,6.50
2018-03-24T08:16:05.517Z,6.70
2018-03-24T08:18:33.978Z,6.90
2018-03-24T08:21:03.427Z,6.90
2018-03-24T08:23:31.074Z,7.00
2018-03-24T08:25:59.458Z,7.30
2018-03-24T08:28:27.843Z,7.30
2018-03-24T08:30:56.320Z,7.30
2018-03-24T08:33:25.578Z,7.30
2018-03-24T08:35:53.279Z,7.30
2018-03-24T08:38:20.920Z,7.40
2018-03-24T08:40:48.994Z,7.40
2018-03-24T08:43:16.600Z,7.60
2018-03-24T08:45:44.244Z,7.70
2018-03-24T08:48:12.720Z,7.80
2018-03-24T08:50:42.037Z,7.90
2018-03-24T08:53:10.614Z,7.90
2018-03-24T08:55:38.233Z,7.80
2018-03-24T08:58:05.926Z,8.00
2018-03-24T09:00:33.585Z,8.00
2018-03-24T09:03:01.947Z,8.30
2018-03-24T09:05:30.362Z,8.30
2018-03-24T09:08:12.190Z,8.30
2018-03-24T09:10:40.262Z,8.50
2018-03-24T09:13:09.639Z,8.60
2018-03-24T09:15:37.287Z,8.60
2018-03-24T09:18:05.098Z,8.60
2018-03-24T09:20:32.777Z,8.80
2018-03-24T09:23:00.450Z,8.80
2018-03-24T09:25:28.866Z,8.90
2018-03-24T09:27:56.498Z,8.80
2018-03-24T09:30:24.947Z,9.00
2018-03-24T09:32:53.278Z,9.00
2018-03-24T09:35:20.897Z,9.20
2018-03-24T09:37:48.607Z,9.20
2018-03-24T09:40:16.194Z,9.20
2018-03-24T09:42:44.168Z,9.30
2018-03-24T09:45:11.763Z,9.30
2018-03-24T09:47:40.410Z,9.60
2018-03-24T09:50:07.991Z,9.60
2018-03-24T09:52:35.604Z,9.60
2018-03-24T09:55:03.233Z,9.70
2018-03-24T09:57:30.854Z,9.70
2018-03-24T09:59:58.497Z,9.70
2018-03-24T10:02:26.149Z,9.80
2018-03-24T10:04:53.832Z,9.90
2018-03-24T10:07:21.420Z,10.00
2018-03-24T10:09:49.032Z,9.90
2018-03-24T10:12:16.668Z,10.00
2018-03-24T10:14:44.346Z,9.90
2018-03-24T10:17:12.744Z,10.20
2018-03-24T10:19:41.250Z,10.10
2018-03-24T10:22:20.652Z,10.30
2018-03-24T10:24:48.330Z,10.50
2018-03-24T10:27:15.950Z,10.50
2018-03-24T10:29:43.574Z,10.40
2018-03-24T10:32:11.556Z,10.50
2018-03-24T10:34:39.589Z,10.60
2018-03-24T10:37:07.185Z,10.70
2018-03-24T10:39:34.850Z,10.60
2018-03-24T10:42:03.269Z,10.70
2018-03-24T10:44:31.695Z,10.70
2018-03-24T10:46:59.274Z,10.70
2018-03-24T10:49:26.883Z,10.80
2018-03-24T10:51:54.556Z,10.80
2018-03-24T10:54:22.304Z,11.00
2018-03-24T10:56:50.635Z,11.20
2018-03-24T10:59:18.464Z,11.10
2018-03-24T11:01:46.168Z,11.20
2018-03-24T11:04:13.813Z,11.30
2018-03-24T11:06:41.429Z,11.30
2018-03-24T11:09:10.649Z,11.40
2018-03-24T11:11:38.286Z,11.40
2018-03-24T11:14:06.659Z,11.60
2018-03-24T11:16:34.287Z,11.50
2018-03-24T11:19:01.899Z,11.80
2018-03-24T11:21:29.519Z,11.90
2018-03-24T11:23:57.138Z,11.80
2018-03-24T11:26:24.779Z,12.00
2018-03-24T11:28:53.184Z,12.20
2018-03-24T11:31:20.779Z,12.20
2018-03-24T11:33:48.436Z,12.30
2018-03-24T11:36:16.088Z,12.40
2018-03-24T11:38:44.447Z,12.20
2018-03-24T11:41:12.053Z,12.40
2018-03-24T11:43:39.711Z,12.30
2018-03-24T11:46:07.353Z,12.30
2018-03-24T11:48:34.962Z,12.50
2018-03-24T11:51:03.383Z,12.50
2018-03-24T11:53:43.403Z,12.50
2018-03-24T11:56:11.490Z,12.50
2018-03-24T11:58:39.108Z,12.60
2018-03-24T12:01:06.748Z,12.40
2018-03-24T12:03:35.037Z,12.60
2018-03-24T12:06:03.588Z,12.70
2018-03-24T12:08:31.288Z,12.70
2018-03-24T12:10:59.267Z,12.50
2018-03-24T12:13:26.961Z,12.30
2018-03-24T12:15:54.642Z,12.30
2018-03-24T12:18:22.428Z,12.30
2018-03-24T12:20:50.055Z,12.30
2018-03-24T12:23:17.785Z,12.20
2018-03-24T12:25:45.424Z,12.30
2018-03-24T12:28:13.027Z,12.40
2018-03-24T12:30:40.642Z,12.40
2018-03-24T12:33:08.319Z,12.50
2018-03-24T12:35:36.858Z,12.40
2018-03-24T12:38:04.486Z,12.40
2018-03-24T12:40:32.970Z,12.90
2018-03-24T12:43:01.344Z,13.10
2018-03-24T12:45:29.780Z,13.10
2018-03-24T12:47:58.248Z,13.10
2018-03-24T12:50:25.851Z,13.10
2018-03-24T12:52:53.616Z,13.10
2018-03-24T12:55:21.258Z,13.20
2018-03-24T12:57:48.960Z,13.10
2018-03-24T13:00:17.514Z,13.10
2018-03-24T13:02:45.166Z,13.00
2018-03-24T13:05:12.815Z,12.80
2018-03-24T13:07:41.224Z,12.90
2018-03-24T13:10:09.612Z,12.90
2018-03-24T13:12:37.206Z,12.90
2018-03-24T13:15:04.918Z,12.80
2018-03-24T13:17:32.660Z,12.90
2018-03-24T13:20:02.006Z,13.00
2018-03-24T13:22:30.403Z,13.20
2018-03-24T13:24:58.087Z,13.20
2018-03-24T13:27:25.710Z,13.30
2018-03-24T13:29:54.105Z,13.40
2018-03-24T13:32:22.499Z,13.00
2018-03-24T13:34:50.088Z,13.00
2018-03-24T13:37:17.695Z,12.90
2018-03-24T13:39:45.357Z,12.80
2018-03-24T13:42:12.987Z,12.70
2018-03-24T13:44:40.672Z,12.80
2018-03-24T13:47:08.270Z,12.90
2018-03-24T13:49:35.888Z,12.90
2018-03-24T13:52:03.525Z,12.80
2018-03-24T13:54:31.147Z,12.90
2018-03-24T13:56:58.783Z,13.00
2018-03-24T13:59:27.213Z,13.00
2018-03-24T14:01:54.831Z,13.00
2018-03-24T14:04:23.214Z,13.00
2018-03-24T14:06:52.240Z,13.20
2018-03-24T14:09:19.839Z,13.20
2018-03-24T14:11:47.446Z,13.40
2018-03-24T14:14:16.032Z,13.50
2018-03-24T14:16:43.664Z,13.50
2018-03-24T14:19:12.040Z,13.50
2018-03-24T14:21:39.653Z,13.50
2018-03-24T14:24:07.586Z,13.50
2018-03-24T14:26:35.180Z,13.50
2018-03-24T14:29:03.756Z,13.30
2018-03-24T14:31:31.431Z,13.30
2018-03-24T14:33:59.106Z,13.20
2018-03-24T14:36:26.690Z,13.30
2018-03-24T14:38:54.790Z,13.40
2018-03-24T14:41:25.972Z,13.40
2018-03-24T14:43:53.692Z,13.50
2018-03-24T14:46:22.878Z,13.50
2018-03-24T14:48:50.628Z,13.50
2018-03-24T14:51:18.419Z,13.20
2018-03-24T14:53:46.176Z,13.00
2018-03-24T14:56:14.640Z,12.80
2018-03-24T14:58:45.699Z,12.80
2018-03-24T15:01:14.701Z,12.70
2018-03-24T15:03:43.118Z,12.90
2018-03-24T15:06:10.900Z,12.90
2018-03-24T15:08:38.782Z,13.00
2018-03-24T15:11:06.539Z,13.00
2018-03-24T15:13:34.514Z,13.00
2018-03-24T15:16:02.293Z,12.80
2018-03-24T15:18:33.828Z,12.60
2018-03-24T15:21:01.639Z,12.60
2018-03-24T15:23:30.967Z,12.60
2018-03-24T15:25:58.752Z,12.60
2018-03-24T15:28:27.935Z,12.70
2018-03-24T15:31:07.490Z,12.60
2018-03-24T15:33:47.356Z,12.60
2018-03-24T15:36:26.824Z,12.40
2018-03-24T15:38:55.148Z,12.30
2018-03-24T15:41:23.833Z,12.30
2018-03-24T15:43:51.838Z,12.30
2018-03-24T15:46:20.427Z,12.30
2018-03-24T15:48:48.079Z,12.30
2018-03-24T15:51:15.661Z,12.30
2018-03-24T15:53:43.334Z,12.30
2018-03-24T15:56:10.994Z,12.20
2018-03-24T15:58:39.579Z,12.10
2018-03-24T16:01:08.738Z,12.10
2018-03-24T16:03:36.393Z,12.20
2018-03-24T16:06:05.052Z,12.10
2018-03-24T16:08:33.596Z,12.10
2018-03-24T16:11:02.153Z,12.10
2018-03-24T16:13:29.800Z,12.10
2018-03-24T16:15:57.502Z,12.20
2018-03-24T16:18:25.282Z,12.20
2018-03-24T16:20:53.953Z,12.10
2018-03-24T16:23:22.082Z,12.00
2018-03-24T16:25:49.710Z,11.90
2018-03-24T16:28:17.375Z,11.90
2018-03-24T16:30:46.018Z,11.90
2018-03-24T16:33:13.642Z,11.70
2018-03-24T16:35:41.702Z,11.80
2018-03-24T16:38:09.564Z,11.90
2018-03-24T16:40:37.310Z,11.90
2018-03-24T16:43:05.762Z,11.90
2018-03-24T16:45:33.510Z,11.90
2018-03-24T16:48:01.188Z,11.90
2018-03-24T16:50:32.630Z,11.90
2018-03-24T16:53:00.366Z,11.80
2018-03-24T16:55:28.901Z,11.70
2018-03-24T16:57:57.592Z,11.60
2018-03-24T17:00:26.055Z,11.60
2018-03-24T17:02:53.747Z,11.60
2018-03-24T17:05:22.057Z,11.50
2018-03-24T17:07:50.546Z,11.50
2018-03-24T17:10:18.302Z,11.50
2018-03-24T17:12:46.954Z,11.70
2018-03-24T17:15:15.374Z,11.70
2018-03-24T17:17:43.037Z,11.70
2018-03-24T17:20:12.986Z,11.50
2018-03-24T17:22:41.430Z,11.30
2018-03-24T17:25:09.123Z,11.30
2018-03-24T17:27:36.937Z,11.30
2018-03-24T17:30:04.875Z,11.30
2018-03-24T17:32:33.251Z,11.30
2018-03-24T17:35:01.689Z,11.20
2018-03-24T17:37:29.713Z,11.20
2018-03-24T17:39:58.163Z,11.10
2018-03-24T17:42:26.030Z,11.10
2018-03-24T17:44:53.719Z,11.00
2018-03-24T17:47:22.090Z,11.00
2018-03-24T17:49:50.653Z,11.00
2018-03-24T17:52:18.335Z,11.00
2018-03-24T17:54:46.042Z,11.00
2018-03-24T17:57:13.681Z,11.00
2018-03-24T17:59:41.388Z,11.00
2018-03-24T18:02:09.120Z,11.00
2018-03-24T18:04:36.873Z,11.00
2018-03-24T18:07:04.500Z,10.90
2018-03-24T18:09:32.300Z,10.70
2018-03-24T18:12:00.042Z,10.60
2018-03-24T18:14:27.740Z,10.50
2018-03-24T18:16:55.346Z,10.50
2018-03-24T18:19:22.995Z,10.40
2018-03-24T18:21:50.660Z,10.30
2018-03-24T18:24:18.423Z,10.30
2018-03-24T18:26:46.081Z,10.30
2018-03-24T18:29:13.748Z,10.20
2018-03-24T18:31:41.449Z,10.10
2018-03-24T18:34:09.830Z,10.00
2018-03-24T18:36:38.242Z,9.90
2018-03-24T18:39:05.866Z,9.90
2018-03-24T18:41:33.574Z,9.90
2018-03-24T18:44:01.458Z,9.80
2018-03-24T18:46:29.075Z,9.80
2018-03-24T18:48:56.845Z,9.70
2018-03-24T18:51:25.347Z,9.60
2018-03-24T18:53:52.968Z,9.50
2018-03-24T18:56:20.605Z,9.50
2018-03-24T18:58:48.337Z,9.50
2018-03-24T19:01:15.960Z,9.50
2018-03-24T19:03:43.677Z,9.50
2018-03-24T19:06:11.292Z,9.50
2018-03-24T19:08:39.704Z,9.50
2018-03-24T19:11:07.438Z,9.40
2018-03-24T19:13:36.017Z,9.50
2018-03-24T19:16:03.598Z,9.40
2018-03-24T19:18:31.248Z,9.40
2018-03-24T19:20:59.652Z,9.40
2018-03-24T19:23:27.264Z,9.40
2018-03-24T19:25:54.864Z,9.40
2018-03-24T19:28:22.537Z,9.30
2018-03-24T19:30:50.188Z,9.30
2018-03-24T19:33:17.773Z,9.20
2018-03-24T19:35:45.436Z,9.20
2018-03-24T19:38:13.814Z,9.10
2018-03-24T19:40:41.439Z,9.00
2018-03-24T19:43:09.122Z,8.90
2018-03-24T19:45:36.906Z,8.90
2018-03-24T19:48:04.553Z,8.90
2018-03-24T19:50:32.179Z,8.80
2018-03-24T19:53:00.945Z,8.70
2018-03-24T19:55:28.753Z,8.70
2018-03-24T19:57:56.376Z,8.70
2018-03-24T20:00:24.069Z,8.70
2018-03-24T20:02:51.676Z,8.70
2018-03-24T20:05:19.510Z,8.50
2018-03-24T20:07:47.203Z,8.60
2018-03-24T20:10:14.867Z,8.50
2018-03-24T20:12:42.506Z,8.50
2018-03-24T20:15:10.170Z,8.40
2018-03-24T20:17:37.787Z,8.40
2018-03-24T20:20:05.448Z,8.30
2018-03-24T20:22:33.480Z,8.20
2018-03-24T20:25:01.454Z,8.20
2018-03-24T20:27:29.103Z,8.20
2018-03-24T20:29:56.731Z,8.10
2018-03-24T20:32:25.065Z,8.10
2018-03-24T20:34:52.672Z,8.00
2018-03-24T20:37:21.127Z,8.00
2018-03-24T20:39:50.807Z,7.90
2018-03-24T20:42:18.584Z,7.90
2018-03-24T20:44:46.288Z,7.90
2018-03-24T20:47:13.983Z,7.90
2018-03-24T20:49:41.776Z,7.70
2018-03-24T20:52:10.345Z,7.70
2018-03-24T20:54:37.976Z,7.70
2018-03-24T20:57:05.625Z,7.70
2018-03-24T20:59:33.257Z,7.70
2018-03-24T21:02:00.839Z,7.60
2018-03-24T21:04:28.460Z,7.60
2018-03-24T21:06:56.880Z,7.50
2018-03-24T21:09:24.490Z,7.50
2018-03-24T21:11:52.219Z,7.40
2018-03-24T21:14:19.882Z,7.30
2018-03-24T21:16:47.549Z,7.20
2018-03-24T21:19:15.169Z,7.20
2018-03-24T21:21:43.575Z,7.10
2018-03-24T21:24:11.246Z,7.10
2018-03-24T21:26:38.853Z,7.10
2018-03-24T21:29:06.488Z,7.20
2018-03-24T21:31:34.082Z,7.10
2018-03-24T21:34:01.761Z,7.10
2018-03-24T21:36:29.379Z,7.00
2018-03-24T21:38:57.078Z,7.00
2018-03-24T21:41:24.753Z,6.90
2018-03-24T21:43:52.518Z,6.90
2018-03-24T21:46:20.947Z,6.90
2018-03-24T21:48:48.949Z,6.80
2018-03-24T21:51:16.813Z,6.80
2018-03-24T21:53:44.397Z,6.80
2018-03-24T21:56:12.163Z,6.80
2018-03-24T21:58:39.747Z,6.70
2018-03-24T22:01:07.359Z,6.70
2018-03-24T22:03:34.986Z,6.70
2018-03-24T22:06:02.565Z,6.70
2018-03-24T22:08:30.222Z,6.70
2018-03-24T22:10:57.851Z,6.50
2018-03-24T22:13:25.490Z,6.40
2018-03-24T22:15:53.101Z,6.50
2018-03-24T22:18:22.480Z,6.50
2018-03-24T22:20:50.903Z,6.50
2018-03-24T22:23:18.557Z,6.50
2018-03-24T22:25:46.490Z,6.40
2018-03-24T22:28:14.108Z,6.40
2018-03-24T22:30:41.814Z,6.30
2018-03-24T22:33:09.405Z,6.20
2018-03-24T22:35:37.107Z,6.20
2018-03-24T22:38:05.511Z,6.20
2018-03-24T22:40:33.118Z,6.20
2018-03-24T22:43:00.710Z,6.20
2018-03-24T22:45:28.803Z,6.20
2018-03-24T22:47:56.430Z,6.10
2018-03-24T22:50:24.038Z,6.10
2018-03-24T22:52:51.670Z,6.10
2018-03-24T22:55:19.286Z,6.10
2018-03-24T22:57:47.794Z,6.10
2018-03-24T23:00:16.530Z,6.10
2018-03-24T23:02:44.143Z,6.10
2018-03-24T23:05:11.750Z,6.10
2018-03-24T23:07:39.359Z,6.00
2018-03-24T23:10:07.028Z,6.00
2018-03-24T23:12:35.552Z,6.00
2018-03-24T23:15:03.902Z,5.90
2018-03-24T23:17:32.254Z,5.90
2018-03-24T23:19:59.904Z,5.80
2018-03-24T23:22:27.479Z,5.80
2018-03-24T23:24:55.127Z,5.80
2018-03-24T23:27:22.783Z,5.80
2018-03-24T23:29:50.354Z,5.70
2018-03-24T23:32:17.940Z,5.70
2018-03-24T23:34:46.309Z,5.70
2018-03-24T23:37:13.916Z,5.60
2018-03-24T23:39:42.290Z,5.70
2018-03-24T23:42:10.766Z,5.60
2018-03-24T23:44:38.362Z,5.60
2018-03-24T23:47:05.972Z,5.50
2018-03-24T23:49:33.579Z,5.50
2018-03-24T23:52:01.208Z,5.50
2018-03-24T23:54:28.910Z,5.40
2018-03-24T23:56:56.481Z,5.30
2018-03-24T23:59:25.990Z,5.30
